sensor_id;sensor_type;location;lat;lon;timestamp;P1;durP1;ratioP1;P2;durP2;ratioP2
10232;SDS011;5161;48.174;11.756;2023-05-07T00:00:33;9.27;;;8.37;;
10232;SDS011;5161;48.174;11.756;2023-05-07T00:02:59;10.27;;;8.80;;
10232;SDS011;5161;48.174;11.756;2023-05-07T00:05:26;9.40;;;8.60;;
10232;SDS011;5161;48.174;11.756;2023-05-07T00:07:51;9.10;;;8.40;;
10232;SDS011;5161;48.174;11.756;2023-05-07T00:10:20;9.13;;;8.33;;
10232;SDS011;5161;48.174;11.756;2023-05-07T00:12:45;9.20;;;8.30;;
10232;SDS011;5161;48.174;11.756;2023-05-07T00:15:11;8.23;;;7.53;;
10232;SDS011;5161;48.174;11.756;2023-05-07T00:17:36;8.93;;;8.13;;
10232;SDS011;5161;48.174;11.756;2023-05-07T00:20:03;8.50;;;7.80;;
10232;SDS011;5161;48.174;11.756;2023-05-07T00:22:29;8.43;;;7.73;;
10232;SDS011;5161;48.174;11.756;2023-05-07T00:24:56;8.67;;;7.83;;
10232;SDS011;5161;48.174;11.756;2023-05-07T00:27:21;9.17;;;7.90;;
10232;SDS011;5161;48.174;11.756;2023-05-07T00:29:47;8.10;;;7.40;;
10232;SDS011;5161;48.174;11.756;2023-05-07T00:32:13;8.10;;;7.40;;
10232;SDS011;5161;48.174;11.756;2023-05-07T00:34:38;8.43;;;7.63;;
10232;SDS011;5161;48.174;11.756;2023-05-07T00:37:04;8.77;;;7.90;;
10232;SDS011;5161;48.174;11.756;2023-05-07T00:39:32;8.80;;;8.10;;
10232;SDS011;5161;48.174;11.756;2023-05-07T00:41:58;8.67;;;7.97;;
10232;SDS011;5161;48.174;11.756;2023-05-07T00:44:24;8.23;;;7.43;;
10232;SDS011;5161;48.174;11.756;2023-05-07T00:46:50;8.10;;;7.40;;
10232;SDS011;5161;48.174;11.756;2023-05-07T00:49:16;8.53;;;7.80;;
10232;SDS011;5161;48.174;11.756;2023-05-07T00:51:42;8.33;;;7.60;;
10232;SDS011;5161;48.174;11.756;2023-05-07T00:54:08;8.40;;;7.70;;
10232;SDS011;5161;48.174;11.756;2023-05-07T00:56:34;8.43;;;7.50;;
10232;SDS011;5161;48.174;11.756;2023-05-07T00:59:01;7.70;;;7.10;;
10232;SDS011;5161;48.174;11.756;2023-05-07T01:01:27;7.90;;;7.20;;
10232;SDS011;5161;48.174;11.756;2023-05-07T01:03:53;8.33;;;7.73;;
10232;SDS011;5161;48.174;11.756;2023-05-07T01:06:18;8.03;;;7.33;;
10232;SDS011;5161;48.174;11.756;2023-05-07T01:08:46;8.87;;;7.37;;
10232;SDS011;5161;48.174;11.756;2023-05-07T01:11:12;8.43;;;7.67;;
10232;SDS011;5161;48.174;11.756;2023-05-07T01:13:39;7.60;;;6.90;;
10232;SDS011;5161;48.174;11.756;2023-05-07T01:16:05;8.50;;;7.70;;
10232;SDS011;5161;48.174;11.756;2023-05-07T01:18:31;8.03;;;7.37;;
10232;SDS011;5161;48.174;11.756;2023-05-07T01:20:58;8.10;;;7.30;;
10232;SDS011;5161;48.174;11.756;2023-05-07T01:23:25;10.03;;;7.80;;
10232;SDS011;5161;48.174;11.756;2023-05-07T01:25:52;8.50;;;7.63;;
10232;SDS011;5161;48.174;11.756;2023-05-07T01:28:18;8.03;;;7.33;;
10232;SDS011;5161;48.174;11.756;2023-05-07T01:30:46;7.93;;;7.27;;
10232;SDS011;5161;48.174;11.756;2023-05-07T01:33:15;8.10;;;7.40;;
10232;SDS011;5161;48.174;11.756;2023-05-07T01:35:45;8.27;;;7.57;;
10232;SDS011;5161;48.174;11.756;2023-05-07T01:38:14;7.87;;;7.17;;
10232;SDS011;5161;48.174;11.756;2023-05-07T01:40:40;8.33;;;7.63;;
10232;SDS011;5161;48.174;11.756;2023-05-07T01:43:05;8.33;;;7.60;;
10232;SDS011;5161;48.174;11.756;2023-05-07T01:45:31;8.10;;;7.50;;
10232;SDS011;5161;48.174;11.756;2023-05-07T01:47:58;8.50;;;7.80;;
10232;SDS011;5161;48.174;11.756;2023-05-07T01:50:25;8.40;;;7.70;;
10232;SDS011;5161;48.174;11.756;2023-05-07T01:52:52;8.83;;;8.00;;
10232;SDS011;5161;48.174;11.756;2023-05-07T01:55:18;7.83;;;7.10;;
10232;SDS011;5161;48.174;11.756;2023-05-07T01:57:44;8.33;;;7.60;;
10232;SDS011;5161;48.174;11.756;2023-05-07T02:00:09;8.70;;;8.00;;
10232;SDS011;5161;48.174;11.756;2023-05-07T02:02:35;8.17;;;7.47;;
10232;SDS011;5161;48.174;11.756;2023-05-07T02:05:03;8.60;;;7.80;;
10232;SDS011;5161;48.174;11.756;2023-05-07T02:07:29;8.17;;;7.33;;
10232;SDS011;5161;48.174;11.756;2023-05-07T02:09:54;7.97;;;7.30;;
10232;SDS011;5161;48.174;11.756;2023-05-07T02:12:23;7.80;;;7.20;;
10232;SDS011;5161;48.174;11.756;2023-05-07T02:14:49;8.07;;;7.40;;
10232;SDS011;5161;48.174;11.756;2023-05-07T02:17:14;8.43;;;7.00;;
10232;SDS011;5161;48.174;11.756;2023-05-07T02:19:40;7.80;;;7.20;;
10232;SDS011;5161;48.174;11.756;2023-05-07T02:22:06;7.63;;;6.93;;
10232;SDS011;5161;48.174;11.756;2023-05-07T02:24:32;7.53;;;6.83;;
10232;SDS011;5161;48.174;11.756;2023-05-07T02:26:57;8.40;;;7.43;;
10232;SDS011;5161;48.174;11.756;2023-05-07T02:29:23;8.03;;;7.33;;
10232;SDS011;5161;48.174;11.756;2023-05-07T02:31:48;7.27;;;6.77;;
10232;SDS011;5161;48.174;11.756;2023-05-07T02:34:16;7.60;;;6.90;;
10232;SDS011;5161;48.174;11.756;2023-05-07T02:36:41;8.33;;;7.70;;
10232;SDS011;5161;48.174;11.756;2023-05-07T02:39:07;7.87;;;7.17;;
10232;SDS011;5161;48.174;11.756;2023-05-07T02:41:33;8.07;;;7.40;;
10232;SDS011;5161;48.174;11.756;2023-05-07T02:43:59;7.43;;;6.83;;
10232;SDS011;5161;48.174;11.756;2023-05-07T02:46:24;8.10;;;7.23;;
10232;SDS011;5161;48.174;11.756;2023-05-07T02:48:50;8.20;;;7.60;;
10232;SDS011;5161;48.174;11.756;2023-05-07T02:51:17;7.73;;;7.13;;
10232;SDS011;5161;48.174;11.756;2023-05-07T02:53:44;8.00;;;7.40;;
10232;SDS011;5161;48.174;11.756;2023-05-07T02:56:11;7.23;;;6.73;;
10232;SDS011;5161;48.174;11.756;2023-05-07T02:58:36;7.77;;;7.10;;
10232;SDS011;5161;48.174;11.756;2023-05-07T03:01:04;8.00;;;7.30;;
10232;SDS011;5161;48.174;11.756;2023-05-07T03:03:30;8.00;;;7.40;;
10232;SDS011;5161;48.174;11.756;2023-05-07T03:05:55;8.10;;;7.40;;
10232;SDS011;5161;48.174;11.756;2023-05-07T03:08:21;8.03;;;7.07;;
10232;SDS011;5161;48.174;11.756;2023-05-07T03:10:47;7.80;;;7.20;;
10232;SDS011;5161;48.174;11.756;2023-05-07T03:13:12;7.83;;;7.10;;
10232;SDS011;5161;48.174;11.756;2023-05-07T03:15:38;8.00;;;7.40;;
10232;SDS011;5161;48.174;11.756;2023-05-07T03:18:03;7.57;;;7.00;;
10232;SDS011;5161;48.174;11.756;2023-05-07T03:20:29;8.17;;;7.40;;
10232;SDS011;5161;48.174;11.756;2023-05-07T03:22:55;7.37;;;6.77;;
10232;SDS011;5161;48.174;11.756;2023-05-07T03:25:20;7.63;;;6.93;;
10232;SDS011;5161;48.174;11.756;2023-05-07T03:27:46;7.80;;;7.20;;
10232;SDS011;5161;48.174;11.756;2023-05-07T03:30:11;10.47;;;7.20;;
10232;SDS011;5161;48.174;11.756;2023-05-07T03:32:37;7.80;;;7.10;;
10232;SDS011;5161;48.174;11.756;2023-05-07T03:35:03;7.60;;;7.00;;
10232;SDS011;5161;48.174;11.756;2023-05-07T03:37:29;7.70;;;6.90;;
10232;SDS011;5161;48.174;11.756;2023-05-07T03:39:55;7.43;;;6.70;;
10232;SDS011;5161;48.174;11.756;2023-05-07T03:42:20;7.33;;;6.83;;
10232;SDS011;5161;48.174;11.756;2023-05-07T03:44:46;7.50;;;6.90;;
10232;SDS011;5161;48.174;11.756;2023-05-07T03:47:11;7.67;;;6.97;;
10232;SDS011;5161;48.174;11.756;2023-05-07T03:49:38;7.47;;;6.87;;
10232;SDS011;5161;48.174;11.756;2023-05-07T03:52:04;7.43;;;6.83;;
10232;SDS011;5161;48.174;11.756;2023-05-07T03:54:30;7.30;;;6.70;;
10232;SDS011;5161;48.174;11.756;2023-05-07T03:56:56;7.97;;;7.37;;
10232;SDS011;5161;48.174;11.756;2023-05-07T03:59:21;8.10;;;7.40;;
10232;SDS011;5161;48.174;11.756;2023-05-07T04:01:47;7.63;;;6.93;;
10232;SDS011;5161;48.174;11.756;2023-05-07T04:04:13;7.57;;;6.87;;
10232;SDS011;5161;48.174;11.756;2023-05-07T04:06:39;7.50;;;6.80;;
10232;SDS011;5161;48.174;11.756;2023-05-07T04:09:05;7.30;;;6.70;;
10232;SDS011;5161;48.174;11.756;2023-05-07T04:11:31;8.70;;;7.07;;
10232;SDS011;5161;48.174;11.756;2023-05-07T04:13:57;7.80;;;7.10;;
10232;SDS011;5161;48.174;11.756;2023-05-07T04:16:22;8.03;;;7.37;;
10232;SDS011;5161;48.174;11.756;2023-05-07T04:18:48;7.90;;;7.30;;
10232;SDS011;5161;48.174;11.756;2023-05-07T04:21:14;7.40;;;6.80;;
10232;SDS011;5161;48.174;11.756;2023-05-07T04:23:40;8.30;;;7.60;;
10232;SDS011;5161;48.174;11.756;2023-05-07T04:26:06;7.67;;;7.10;;
10232;SDS011;5161;48.174;11.756;2023-05-07T04:28:32;7.90;;;7.20;;
10232;SDS011;5161;48.174;11.756;2023-05-07T04:30:57;7.80;;;7.20;;
10232;SDS011;5161;48.174;11.756;2023-05-07T04:33:23;7.37;;;6.77;;
10232;SDS011;5161;48.174;11.756;2023-05-07T04:35:49;7.97;;;7.33;;
10232;SDS011;5161;48.174;11.756;2023-05-07T04:38:14;7.13;;;6.60;;
10232;SDS011;5161;48.174;11.756;2023-05-07T04:40:40;7.53;;;7.00;;
10232;SDS011;5161;48.174;11.756;2023-05-07T04:43:06;7.40;;;6.67;;
10232;SDS011;5161;48.174;11.756;2023-05-07T04:45:32;8.37;;;7.67;;
10232;SDS011;5161;48.174;11.756;2023-05-07T04:47:58;7.73;;;7.20;;
10232;SDS011;5161;48.174;11.756;2023-05-07T04:50:23;7.87;;;7.17;;
10232;SDS011;5161;48.174;11.756;2023-05-07T04:52:49;7.87;;;7.23;;
10232;SDS011;5161;48.174;11.756;2023-05-07T04:55:15;8.37;;;7.67;;
10232;SDS011;5161;48.174;11.756;2023-05-07T04:57:40;7.50;;;7.00;;
10232;SDS011;5161;48.174;11.756;2023-05-07T05:00:06;8.70;;;7.90;;
10232;SDS011;5161;48.174;11.756;2023-05-07T05:02:33;8.20;;;7.50;;
10232;SDS011;5161;48.174;11.756;2023-05-07T05:05:00;8.53;;;7.90;;
10232;SDS011;5161;48.174;11.756;2023-05-07T05:07:27;9.93;;;9.03;;
10232;SDS011;5161;48.174;11.756;2023-05-07T05:09:53;9.63;;;8.83;;
10232;SDS011;5161;48.174;11.756;2023-05-07T05:12:19;9.80;;;9.00;;
10232;SDS011;5161;48.174;11.756;2023-05-07T05:14:45;9.83;;;8.83;;
10232;SDS011;5161;48.174;11.756;2023-05-07T05:17:10;10.00;;;8.73;;
10232;SDS011;5161;48.174;11.756;2023-05-07T05:19:36;9.27;;;8.57;;
10232;SDS011;5161;48.174;11.756;2023-05-07T05:22:01;9.53;;;8.53;;
10232;SDS011;5161;48.174;11.756;2023-05-07T05:24:28;9.40;;;8.60;;
10232;SDS011;5161;48.174;11.756;2023-05-07T05:26:55;9.87;;;8.90;;
10232;SDS011;5161;48.174;11.756;2023-05-07T05:29:20;10.00;;;9.10;;
10232;SDS011;5161;48.174;11.756;2023-05-07T05:31:46;10.77;;;9.70;;
10232;SDS011;5161;48.174;11.756;2023-05-07T05:34:12;9.97;;;9.17;;
10232;SDS011;5161;48.174;11.756;2023-05-07T05:36:37;10.80;;;9.83;;
10232;SDS011;5161;48.174;11.756;2023-05-07T05:39:03;11.43;;;10.43;;
10232;SDS011;5161;48.174;11.756;2023-05-07T05:41:29;11.10;;;10.17;;
10232;SDS011;5161;48.174;11.756;2023-05-07T05:43:55;11.60;;;10.60;;
10232;SDS011;5161;48.174;11.756;2023-05-07T05:46:21;11.00;;;10.10;;
10232;SDS011;5161;48.174;11.756;2023-05-07T05:48:46;12.13;;;10.93;;
10232;SDS011;5161;48.174;11.756;2023-05-07T05:51:12;12.47;;;11.17;;
10232;SDS011;5161;48.174;11.756;2023-05-07T05:53:37;11.93;;;10.73;;
10232;SDS011;5161;48.174;11.756;2023-05-07T05:56:03;12.23;;;11.03;;
10232;SDS011;5161;48.174;11.756;2023-05-07T05:58:29;12.20;;;11.13;;
10232;SDS011;5161;48.174;11.756;2023-05-07T06:00:55;11.40;;;10.43;;
10232;SDS011;5161;48.174;11.756;2023-05-07T06:03:21;10.90;;;10.00;;
10232;SDS011;5161;48.174;11.756;2023-05-07T06:05:47;12.10;;;11.00;;
10232;SDS011;5161;48.174;11.756;2023-05-07T06:08:12;12.20;;;11.00;;
10232;SDS011;5161;48.174;11.756;2023-05-07T06:10:38;15.73;;;11.03;;
10232;SDS011;5161;48.174;11.756;2023-05-07T06:13:04;12.67;;;11.47;;
10232;SDS011;5161;48.174;11.756;2023-05-07T06:15:30;11.93;;;10.73;;
10232;SDS011;5161;48.174;11.756;2023-05-07T06:17:55;11.43;;;10.53;;
10232;SDS011;5161;48.174;11.756;2023-05-07T06:20:22;12.37;;;11.03;;
10232;SDS011;5161;48.174;11.756;2023-05-07T06:22:48;12.80;;;11.50;;
10232;SDS011;5161;48.174;11.756;2023-05-07T06:25:13;11.40;;;10.40;;
10232;SDS011;5161;48.174;11.756;2023-05-07T06:27:39;10.83;;;9.90;;
10232;SDS011;5161;48.174;11.756;2023-05-07T06:30:05;11.47;;;10.30;;
10232;SDS011;5161;48.174;11.756;2023-05-07T06:32:31;10.10;;;9.20;;
10232;SDS011;5161;48.174;11.756;2023-05-07T06:34:57;9.63;;;8.73;;
10232;SDS011;5161;48.174;11.756;2023-05-07T06:37:23;9.50;;;8.70;;
10232;SDS011;5161;48.174;11.756;2023-05-07T06:39:48;9.13;;;8.33;;
10232;SDS011;5161;48.174;11.756;2023-05-07T06:42:14;8.53;;;7.70;;
10232;SDS011;5161;48.174;11.756;2023-05-07T06:44:40;8.47;;;7.63;;
10232;SDS011;5161;48.174;11.756;2023-05-07T06:47:05;8.33;;;7.60;;
10232;SDS011;5161;48.174;11.756;2023-05-07T06:49:31;7.93;;;7.33;;
10232;SDS011;5161;48.174;11.756;2023-05-07T06:51:57;7.50;;;6.80;;
10232;SDS011;5161;48.174;11.756;2023-05-07T06:54:23;7.27;;;6.77;;
10232;SDS011;5161;48.174;11.756;2023-05-07T06:56:48;7.63;;;6.50;;
10232;SDS011;5161;48.174;11.756;2023-05-07T06:59:14;7.00;;;6.50;;
10232;SDS011;5161;48.174;11.756;2023-05-07T07:01:40;7.33;;;6.70;;
10232;SDS011;5161;48.174;11.756;2023-05-07T07:04:06;7.20;;;6.33;;
10232;SDS011;5161;48.174;11.756;2023-05-07T07:06:31;6.83;;;6.33;;
10232;SDS011;5161;48.174;11.756;2023-05-07T07:08:58;7.03;;;6.20;;
10232;SDS011;5161;48.174;11.756;2023-05-07T07:11:24;7.00;;;6.30;;
10232;SDS011;5161;48.174;11.756;2023-05-07T07:13:50;7.50;;;6.90;;
10232;SDS011;5161;48.174;11.756;2023-05-07T07:16:15;7.10;;;6.40;;
10232;SDS011;5161;48.174;11.756;2023-05-07T07:18:42;7.10;;;6.50;;
10232;SDS011;5161;48.174;11.756;2023-05-07T07:21:07;7.37;;;6.70;;
10232;SDS011;5161;48.174;11.756;2023-05-07T07:23:33;8.33;;;7.63;;
10232;SDS011;5161;48.174;11.756;2023-05-07T07:25:59;8.10;;;7.40;;
10232;SDS011;5161;48.174;11.756;2023-05-07T07:28:25;7.43;;;6.77;;
10232;SDS011;5161;48.174;11.756;2023-05-07T07:30:50;7.20;;;6.50;;
10232;SDS011;5161;48.174;11.756;2023-05-07T07:33:16;5.80;;;5.40;;
10232;SDS011;5161;48.174;11.756;2023-05-07T07:35:42;6.10;;;5.60;;
10232;SDS011;5161;48.174;11.756;2023-05-07T07:38:07;7.07;;;6.13;;
10232;SDS011;5161;48.174;11.756;2023-05-07T07:40:36;7.20;;;6.60;;
10232;SDS011;5161;48.174;11.756;2023-05-07T07:43:02;6.80;;;6.20;;
10232;SDS011;5161;48.174;11.756;2023-05-07T07:45:28;7.10;;;6.50;;
10232;SDS011;5161;48.174;11.756;2023-05-07T07:47:54;7.50;;;6.80;;
10232;SDS011;5161;48.174;11.756;2023-05-07T07:50:19;7.30;;;6.70;;
10232;SDS011;5161;48.174;11.756;2023-05-07T07:52:45;6.87;;;6.30;;
10232;SDS011;5161;48.174;11.756;2023-05-07T07:55:11;6.67;;;6.17;;
10232;SDS011;5161;48.174;11.756;2023-05-07T07:57:37;7.40;;;6.80;;
10232;SDS011;5161;48.174;11.756;2023-05-07T08:00:02;6.60;;;6.00;;
10232;SDS011;5161;48.174;11.756;2023-05-07T08:02:29;7.07;;;6.50;;
10232;SDS011;5161;48.174;11.756;2023-05-07T08:04:55;6.47;;;5.87;;
10232;SDS011;5161;48.174;11.756;2023-05-07T08:07:20;7.73;;;5.80;;
10232;SDS011;5161;48.174;11.756;2023-05-07T08:09:47;6.27;;;5.77;;
10232;SDS011;5161;48.174;11.756;2023-05-07T08:12:13;6.57;;;6.07;;
10232;SDS011;5161;48.174;11.756;2023-05-07T08:14:39;6.30;;;5.90;;
10232;SDS011;5161;48.174;11.756;2023-05-07T08:17:05;6.23;;;5.73;;
10232;SDS011;5161;48.174;11.756;2023-05-07T08:19:31;5.90;;;5.40;;
10232;SDS011;5161;48.174;11.756;2023-05-07T08:21:57;6.10;;;5.50;;
10232;SDS011;5161;48.174;11.756;2023-05-07T08:24:22;6.60;;;6.00;;
10232;SDS011;5161;48.174;11.756;2023-05-07T08:26:48;5.47;;;4.97;;
10232;SDS011;5161;48.174;11.756;2023-05-07T08:29:14;8.03;;;6.60;;
10232;SDS011;5161;48.174;11.756;2023-05-07T08:31:40;8.03;;;7.30;;
10232;SDS011;5161;48.174;11.756;2023-05-07T08:34:06;7.97;;;7.20;;
10232;SDS011;5161;48.174;11.756;2023-05-07T08:36:32;7.87;;;6.77;;
10232;SDS011;5161;48.174;11.756;2023-05-07T08:38:58;6.30;;;5.80;;
10232;SDS011;5161;48.174;11.756;2023-05-07T08:41:24;6.47;;;5.87;;
10232;SDS011;5161;48.174;11.756;2023-05-07T08:43:50;6.33;;;5.80;;
10232;SDS011;5161;48.174;11.756;2023-05-07T08:46:17;6.17;;;5.27;;
10232;SDS011;5161;48.174;11.756;2023-05-07T08:48:45;6.50;;;6.00;;
10232;SDS011;5161;48.174;11.756;2023-05-07T08:51:14;6.37;;;5.77;;
10232;SDS011;5161;48.174;11.756;2023-05-07T08:53:41;6.93;;;6.00;;
10232;SDS011;5161;48.174;11.756;2023-05-07T08:56:10;6.43;;;5.90;;
10232;SDS011;5161;48.174;11.756;2023-05-07T08:58:36;5.67;;;5.27;;
10232;SDS011;5161;48.174;11.756;2023-05-07T09:01:03;6.70;;;6.10;;
10232;SDS011;5161;48.174;11.756;2023-05-07T09:03:36;5.93;;;5.43;;
10232;SDS011;5161;48.174;11.756;2023-05-07T09:06:03;6.37;;;5.97;;
10232;SDS011;5161;48.174;11.756;2023-05-07T09:08:29;9.50;;;6.40;;
10232;SDS011;5161;48.174;11.756;2023-05-07T09:10:54;7.20;;;6.60;;
10232;SDS011;5161;48.174;11.756;2023-05-07T09:13:20;6.10;;;5.60;;
10232;SDS011;5161;48.174;11.756;2023-05-07T09:15:48;6.00;;;5.40;;
10232;SDS011;5161;48.174;11.756;2023-05-07T09:18:14;6.47;;;5.87;;
10232;SDS011;5161;48.174;11.756;2023-05-07T09:20:41;6.53;;;6.03;;
10232;SDS011;5161;48.174;11.756;2023-05-07T09:23:10;6.40;;;5.80;;
10232;SDS011;5161;48.174;11.756;2023-05-07T09:25:38;5.87;;;5.27;;
10232;SDS011;5161;48.174;11.756;2023-05-07T09:28:04;5.70;;;5.00;;
10232;SDS011;5161;48.174;11.756;2023-05-07T09:30:34;5.40;;;4.90;;
10232;SDS011;5161;48.174;11.756;2023-05-07T09:33:01;6.40;;;4.87;;
10232;SDS011;5161;48.174;11.756;2023-05-07T09:35:27;5.60;;;5.10;;
10232;SDS011;5161;48.174;11.756;2023-05-07T09:37:58;4.90;;;4.40;;
10232;SDS011;5161;48.174;11.756;2023-05-07T09:40:27;5.70;;;5.23;;
10232;SDS011;5161;48.174;11.756;2023-05-07T09:42:54;5.80;;;5.30;;
10232;SDS011;5161;48.174;11.756;2023-05-07T09:45:29;6.37;;;5.77;;
10232;SDS011;5161;48.174;11.756;2023-05-07T09:47:57;6.17;;;5.57;;
10232;SDS011;5161;48.174;11.756;2023-05-07T09:50:30;5.90;;;5.37;;
10232;SDS011;5161;48.174;11.756;2023-05-07T09:53:01;5.40;;;4.90;;
10232;SDS011;5161;48.174;11.756;2023-05-07T09:55:28;5.43;;;5.03;;
10232;SDS011;5161;48.174;11.756;2023-05-07T09:57:54;5.33;;;4.93;;
10232;SDS011;5161;48.174;11.756;2023-05-07T10:00:21;4.50;;;4.20;;
10232;SDS011;5161;48.174;11.756;2023-05-07T10:02:48;4.90;;;4.40;;
10232;SDS011;5161;48.174;11.756;2023-05-07T10:05:16;4.03;;;3.70;;
10232;SDS011;5161;48.174;11.756;2023-05-07T10:07:42;3.33;;;3.00;;
10232;SDS011;5161;48.174;11.756;2023-05-07T10:10:09;5.10;;;4.70;;
10232;SDS011;5161;48.174;11.756;2023-05-07T10:12:40;4.33;;;4.03;;
10232;SDS011;5161;48.174;11.756;2023-05-07T10:15:11;4.70;;;4.40;;
10232;SDS011;5161;48.174;11.756;2023-05-07T10:17:37;5.60;;;5.10;;
10232;SDS011;5161;48.174;11.756;2023-05-07T10:20:04;5.80;;;5.37;;
10232;SDS011;5161;48.174;11.756;2023-05-07T10:22:32;5.70;;;5.20;;
10232;SDS011;5161;48.174;11.756;2023-05-07T10:25:05;5.97;;;5.53;;
10232;SDS011;5161;48.174;11.756;2023-05-07T10:27:36;6.47;;;5.97;;
10232;SDS011;5161;48.174;11.756;2023-05-07T10:32:39;6.57;;;5.67;;
10232;SDS011;5161;48.174;11.756;2023-05-07T10:35:14;8.00;;;7.33;;
10232;SDS011;5161;48.174;11.756;2023-05-07T10:37:45;6.57;;;5.97;;
10232;SDS011;5161;48.174;11.756;2023-05-07T10:40:11;14.33;;;9.17;;
10232;SDS011;5161;48.174;11.756;2023-05-07T10:42:38;6.67;;;6.07;;
10232;SDS011;5161;48.174;11.756;2023-05-07T10:45:17;7.63;;;6.93;;
10232;SDS011;5161;48.174;11.756;2023-05-07T10:50:30;7.90;;;7.10;;
10232;SDS011;5161;48.174;11.756;2023-05-07T10:55:40;6.93;;;6.27;;
10232;SDS011;5161;48.174;11.756;2023-05-07T11:00:47;7.87;;;7.07;;
10232;SDS011;5161;48.174;11.756;2023-05-07T11:03:13;7.20;;;6.60;;
10232;SDS011;5161;48.174;11.756;2023-05-07T11:05:40;6.87;;;6.30;;
10232;SDS011;5161;48.174;11.756;2023-05-07T11:08:07;6.53;;;5.97;;
10232;SDS011;5161;48.174;11.756;2023-05-07T11:10:52;6.53;;;6.03;;
10232;SDS011;5161;48.174;11.756;2023-05-07T11:13:42;6.53;;;5.93;;
10232;SDS011;5161;48.174;11.756;2023-05-07T11:16:22;7.10;;;6.40;;
10232;SDS011;5161;48.174;11.756;2023-05-07T11:18:49;6.87;;;6.27;;
10232;SDS011;5161;48.174;11.756;2023-05-07T11:21:35;7.40;;;6.70;;
10232;SDS011;5161;48.174;11.756;2023-05-07T11:24:08;6.53;;;6.03;;
10232;SDS011;5161;48.174;11.756;2023-05-07T11:26:44;6.40;;;5.90;;
10232;SDS011;5161;48.174;11.756;2023-05-07T11:29:20;6.60;;;6.10;;
10232;SDS011;5161;48.174;11.756;2023-05-07T11:31:53;6.13;;;5.53;;
10232;SDS011;5161;48.174;11.756;2023-05-07T11:34:23;5.97;;;5.40;;
10232;SDS011;5161;48.174;11.756;2023-05-07T11:36:51;5.83;;;5.30;;
10232;SDS011;5161;48.174;11.756;2023-05-07T11:39:29;6.33;;;5.73;;
10232;SDS011;5161;48.174;11.756;2023-05-07T11:42:00;5.73;;;5.23;;
10232;SDS011;5161;48.174;11.756;2023-05-07T11:44:41;5.57;;;5.17;;
10232;SDS011;5161;48.174;11.756;2023-05-07T11:47:11;5.57;;;5.17;;
10232;SDS011;5161;48.174;11.756;2023-05-07T11:49:49;5.73;;;5.30;;
10232;SDS011;5161;48.174;11.756;2023-05-07T11:52:16;6.00;;;4.83;;
10232;SDS011;5161;48.174;11.756;2023-05-07T11:54:49;5.37;;;4.97;;
10232;SDS011;5161;48.174;11.756;2023-05-07T11:57:15;5.20;;;4.73;;
10232;SDS011;5161;48.174;11.756;2023-05-07T11:59:46;5.20;;;4.80;;
10232;SDS011;5161;48.174;11.756;2023-05-07T12:02:15;5.27;;;4.87;;
10232;SDS011;5161;48.174;11.756;2023-05-07T12:04:42;4.80;;;4.50;;
10232;SDS011;5161;48.174;11.756;2023-05-07T12:07:13;4.87;;;4.40;;
10232;SDS011;5161;48.174;11.756;2023-05-07T12:09:43;5.77;;;4.37;;
10232;SDS011;5161;48.174;11.756;2023-05-07T12:12:09;4.67;;;4.30;;
10232;SDS011;5161;48.174;11.756;2023-05-07T12:14:39;4.60;;;4.20;;
10232;SDS011;5161;48.174;11.756;2023-05-07T12:17:05;4.70;;;4.30;;
10232;SDS011;5161;48.174;11.756;2023-05-07T12:19:35;5.07;;;4.60;;
10232;SDS011;5161;48.174;11.756;2023-05-07T12:22:04;4.50;;;4.17;;
10232;SDS011;5161;48.174;11.756;2023-05-07T12:24:47;4.50;;;4.10;;
10232;SDS011;5161;48.174;11.756;2023-05-07T12:27:14;4.10;;;3.80;;
10232;SDS011;5161;48.174;11.756;2023-05-07T12:29:47;3.67;;;3.37;;
10232;SDS011;5161;48.174;11.756;2023-05-07T12:32:16;4.03;;;3.70;;
10232;SDS011;5161;48.174;11.756;2023-05-07T12:34:43;4.00;;;3.63;;
10232;SDS011;5161;48.174;11.756;2023-05-07T12:37:09;3.30;;;3.10;;
10232;SDS011;5161;48.174;11.756;2023-05-07T12:39:35;3.50;;;3.30;;
10232;SDS011;5161;48.174;11.756;2023-05-07T12:42:01;3.90;;;3.53;;
10232;SDS011;5161;48.174;11.756;2023-05-07T12:44:33;3.57;;;3.37;;
10232;SDS011;5161;48.174;11.756;2023-05-07T12:47:02;3.50;;;3.30;;
10232;SDS011;5161;48.174;11.756;2023-05-07T12:49:28;3.47;;;3.20;;
10232;SDS011;5161;48.174;11.756;2023-05-07T12:51:54;3.60;;;3.40;;
10232;SDS011;5161;48.174;11.756;2023-05-07T12:54:33;3.23;;;3.03;;
10232;SDS011;5161;48.174;11.756;2023-05-07T12:57:05;3.33;;;3.13;;
10232;SDS011;5161;48.174;11.756;2023-05-07T12:59:32;3.40;;;3.20;;
10232;SDS011;5161;48.174;11.756;2023-05-07T13:02:01;3.77;;;3.50;;
10232;SDS011;5161;48.174;11.756;2023-05-07T13:04:27;3.37;;;3.17;;
10232;SDS011;5161;48.174;11.756;2023-05-07T13:06:52;3.60;;;3.30;;
10232;SDS011;5161;48.174;11.756;2023-05-07T13:09:18;3.30;;;3.00;;
10232;SDS011;5161;48.174;11.756;2023-05-07T13:11:43;3.73;;;3.50;;
10232;SDS011;5161;48.174;11.756;2023-05-07T13:14:09;3.90;;;3.70;;
10232;SDS011;5161;48.174;11.756;2023-05-07T13:16:34;4.30;;;4.00;;
10232;SDS011;5161;48.174;11.756;2023-05-07T13:19:00;3.73;;;3.43;;
10232;SDS011;5161;48.174;11.756;2023-05-07T13:21:26;4.13;;;3.83;;
10232;SDS011;5161;48.174;11.756;2023-05-07T13:23:51;4.20;;;3.90;;
10232;SDS011;5161;48.174;11.756;2023-05-07T13:26:17;4.30;;;3.90;;
10232;SDS011;5161;48.174;11.756;2023-05-07T13:28:43;4.20;;;3.90;;
10232;SDS011;5161;48.174;11.756;2023-05-07T13:31:09;3.70;;;3.50;;
10232;SDS011;5161;48.174;11.756;2023-05-07T13:33:34;4.33;;;4.03;;
10232;SDS011;5161;48.174;11.756;2023-05-07T13:36:00;4.43;;;4.03;;
10232;SDS011;5161;48.174;11.756;2023-05-07T13:38:28;4.83;;;4.50;;
10232;SDS011;5161;48.174;11.756;2023-05-07T13:40:54;4.63;;;4.33;;
10232;SDS011;5161;48.174;11.756;2023-05-07T13:43:20;4.90;;;4.60;;
10232;SDS011;5161;48.174;11.756;2023-05-07T13:45:45;5.60;;;4.80;;
10232;SDS011;5161;48.174;11.756;2023-05-07T13:48:11;4.73;;;4.43;;
10232;SDS011;5161;48.174;11.756;2023-05-07T13:50:36;4.90;;;4.60;;
10232;SDS011;5161;48.174;11.756;2023-05-07T13:53:02;4.67;;;4.30;;
10232;SDS011;5161;48.174;11.756;2023-05-07T13:55:28;4.50;;;4.07;;
10232;SDS011;5161;48.174;11.756;2023-05-07T13:58:00;4.97;;;4.67;;
10232;SDS011;5161;48.174;11.756;2023-05-07T14:00:28;4.23;;;4.00;;
10232;SDS011;5161;48.174;11.756;2023-05-07T14:02:54;4.83;;;4.53;;
10232;SDS011;5161;48.174;11.756;2023-05-07T14:05:20;4.80;;;4.40;;
10232;SDS011;5161;48.174;11.756;2023-05-07T14:07:48;4.67;;;4.30;;
10232;SDS011;5161;48.174;11.756;2023-05-07T14:10:16;4.53;;;4.33;;
10232;SDS011;5161;48.174;11.756;2023-05-07T14:12:43;4.37;;;4.07;;
10232;SDS011;5161;48.174;11.756;2023-05-07T14:15:09;5.67;;;4.90;;
10232;SDS011;5161;48.174;11.756;2023-05-07T14:17:35;5.00;;;4.60;;
10232;SDS011;5161;48.174;11.756;2023-05-07T14:20:01;4.70;;;4.30;;
10232;SDS011;5161;48.174;11.756;2023-05-07T14:22:26;5.13;;;4.63;;
10232;SDS011;5161;48.174;11.756;2023-05-07T14:24:52;4.53;;;4.13;;
10232;SDS011;5161;48.174;11.756;2023-05-07T14:27:17;4.53;;;4.23;;
10232;SDS011;5161;48.174;11.756;2023-05-07T14:29:43;4.97;;;4.57;;
10232;SDS011;5161;48.174;11.756;2023-05-07T14:32:10;4.50;;;4.10;;
10232;SDS011;5161;48.174;11.756;2023-05-07T14:34:36;4.30;;;4.00;;
10232;SDS011;5161;48.174;11.756;2023-05-07T14:37:01;4.50;;;4.20;;
10232;SDS011;5161;48.174;11.756;2023-05-07T14:39:27;4.87;;;4.47;;
10232;SDS011;5161;48.174;11.756;2023-05-07T14:41:52;4.27;;;4.03;;
10232;SDS011;5161;48.174;11.756;2023-05-07T14:44:19;4.50;;;4.20;;
10232;SDS011;5161;48.174;11.756;2023-05-07T14:46:45;5.07;;;4.73;;
10232;SDS011;5161;48.174;11.756;2023-05-07T14:49:11;4.93;;;4.57;;
10232;SDS011;5161;48.174;11.756;2023-05-07T14:51:42;4.60;;;4.30;;
10232;SDS011;5161;48.174;11.756;2023-05-07T14:54:11;5.00;;;4.60;;